createdAt,value
2022-10-04T00:01:08.097Z,7.17
2022-10-04T00:03:40.937Z,7.13
2022-10-04T00:06:14.784Z,7.15
2022-10-04T00:08:48.340Z,7.12
2022-10-04T00:11:20.142Z,7.04
2022-10-04T00:13:50.452Z,7.01
2022-10-04T00:16:24.588Z,6.94
2022-10-04T00:19:01.876Z,6.89
2022-10-04T00:22:10.246Z,6.85
2022-10-04T00:24:37.517Z,6.84
2022-10-04T00:27:25.132Z,6.86
2022-10-04T00:30:23.245Z,6.87
2022-10-04T00:33:03.879Z,6.87
2022-10-04T00:35:30.210Z,6.85
2022-10-04T00:38:17.204Z,6.83
2022-10-04T00:40:55.192Z,6.86
2022-10-04T00:43:40.659Z,6.85
2022-10-04T00:46:13.241Z,6.87
2022-10-04T00:48:44.295Z,6.90
2022-10-04T00:51:44.302Z,6.93
2022-10-04T00:54:32.497Z,6.94
2022-10-04T00:57:08.699Z,6.86
2022-10-04T00:59:43.783Z,6.96
2022-10-04T01:02:29.084Z,6.98
2022-10-04T01:05:05.138Z,6.97
2022-10-04T01:07:40.972Z,6.98
2022-10-04T01:10:13.349Z,7.00
2022-10-04T01:12:50.874Z,7.01
2022-10-04T01:15:33.947Z,6.93
2022-10-04T01:18:12.372Z,6.83
2022-10-04T01:20:48.078Z,6.75
2022-10-04T01:23:32.562Z,6.69
2022-10-04T01:25:59.152Z,6.63
2022-10-04T01:28:26.915Z,6.54
2022-10-04T01:30:53.732Z,6.54
2022-10-04T01:33:20.196Z,6.47
2022-10-04T01:35:48.114Z,6.41
2022-10-04T01:38:14.786Z,6.37
2022-10-04T01:40:54.205Z,6.35
2022-10-04T01:43:30.995Z,6.27
2022-10-04T01:46:05.112Z,6.28
2022-10-04T01:48:37.007Z,6.26
2022-10-04T01:51:11.616Z,6.20
2022-10-04T01:53:47.534Z,6.20
2022-10-04T01:56:19.610Z,6.21
2022-10-04T01:58:56.076Z,6.19
2022-10-04T02:01:28.486Z,6.19
2022-10-04T02:04:02.284Z,6.19
2022-10-04T02:06:35.965Z,6.19
2022-10-04T02:09:10.539Z,6.15
2022-10-04T02:11:39.588Z,6.16
2022-10-04T02:14:15.663Z,6.15
2022-10-04T02:16:45.144Z,6.18
2022-10-04T02:19:12.635Z,6.22
2022-10-04T02:21:39.240Z,6.24
2022-10-04T02:24:08.405Z,6.28
2022-10-04T02:26:34.961Z,6.32
2022-10-04T02:29:01.490Z,6.34
2022-10-04T02:31:47.049Z,6.36
2022-10-04T02:34:14.077Z,6.35
2022-10-04T02:36:41.563Z,6.30
2022-10-04T02:39:26.449Z,6.26
2022-10-04T02:41:58.840Z,6.15
2022-10-04T02:44:43.974Z,6.14
2022-10-04T02:47:23.800Z,6.15
2022-10-04T02:49:58.458Z,6.12
2022-10-04T02:52:33.959Z,6.13
2022-10-04T02:55:05.821Z,6.14
2022-10-04T02:57:34.440Z,6.15
2022-10-04T03:00:03.607Z,6.15
2022-10-04T03:02:30.926Z,6.16
2022-10-04T03:05:07.056Z,6.21
2022-10-04T03:07:35.410Z,6.25
2022-10-04T03:10:06.468Z,6.20
2022-10-04T03:12:33.724Z,6.14
2022-10-04T03:15:00.287Z,6.13
2022-10-04T03:17:26.706Z,6.11
2022-10-04T03:19:53.081Z,6.06
2022-10-04T03:22:19.494Z,6.02
2022-10-04T03:24:50.034Z,5.99
2022-10-04T03:27:22.016Z,5.90
2022-10-04T03:29:50.274Z,5.93
2022-10-04T03:32:19.076Z,5.97
2022-10-04T03:34:56.470Z,5.98
2022-10-04T03:37:25.026Z,6.01
2022-10-04T03:39:54.584Z,6.03
2022-10-04T03:42:27.665Z,6.04
2022-10-04T03:44:57.084Z,6.01
2022-10-04T03:47:40.345Z,5.96
2022-10-04T03:50:26.679Z,5.95
2022-10-04T03:53:06.022Z,5.97
2022-10-04T03:55:36.439Z,5.95
2022-10-04T03:58:03.128Z,5.92
2022-10-04T04:00:29.860Z,5.88
2022-10-04T04:03:00.653Z,5.89
2022-10-04T04:05:44.661Z,5.83
2022-10-04T04:08:28.799Z,5.81
2022-10-04T04:10:58.163Z,5.82
2022-10-04T04:13:38.510Z,5.80
2022-10-04T04:16:05.954Z,5.83
2022-10-04T04:18:38.547Z,5.84
2022-10-04T04:21:07.987Z,5.86
2022-10-04T04:23:43.156Z,5.88
2022-10-04T04:26:35.948Z,5.88
2022-10-04T04:29:08.598Z,5.85
2022-10-04T04:31:42.822Z,5.85
2022-10-04T04:34:22.444Z,5.89
2022-10-04T04:36:48.898Z,5.86
2022-10-04T04:39:34.856Z,5.89
2022-10-04T04:42:10.379Z,5.90
2022-10-04T04:44:44.925Z,6.01
2022-10-04T04:47:26.334Z,6.10
2022-10-04T04:49:53.570Z,6.19
2022-10-04T04:52:25.810Z,6.22
2022-10-04T04:54:53.015Z,6.23
2022-10-04T04:57:19.951Z,6.28
2022-10-04T04:59:50.807Z,6.33
2022-10-04T05:02:35.694Z,6.33
2022-10-04T05:05:23.160Z,6.23
2022-10-04T05:07:50.856Z,6.25
2022-10-04T05:10:35.393Z,6.22
2022-10-04T05:13:04.214Z,6.20
2022-10-04T05:15:35.876Z,6.20
2022-10-04T05:18:17.722Z,6.19
2022-10-04T05:20:49.920Z,6.17
2022-10-04T05:23:16.515Z,6.20
2022-10-04T05:25:43.306Z,6.21
2022-10-04T05:28:18.156Z,6.22
2022-10-04T05:31:11.474Z,6.24
2022-10-04T05:33:50.601Z,6.26
2022-10-04T05:36:29.673Z,6.28
2022-10-04T05:39:06.066Z,6.31
2022-10-04T05:41:56.885Z,6.31
2022-10-04T05:44:28.993Z,6.30
2022-10-04T05:46:59.107Z,6.27
2022-10-04T05:49:30.695Z,6.30
2022-10-04T05:52:02.737Z,6.33
2022-10-04T05:54:33.173Z,6.35
2022-10-04T05:57:27.409Z,6.40
2022-10-04T06:00:17.590Z,6.41
2022-10-04T06:02:51.101Z,6.48
2022-10-04T06:05:30.521Z,6.51
2022-10-04T06:08:15.289Z,6.51
2022-10-04T06:11:08.153Z,6.59
2022-10-04T06:14:05.247Z,6.65
2022-10-04T06:17:09.066Z,6.68
2022-10-04T06:20:22.741Z,6.66
2022-10-04T06:22:58.478Z,6.68
2022-10-04T06:25:36.754Z,6.70
2022-10-04T06:28:16.228Z,6.73
2022-10-04T06:31:05.008Z,6.75
2022-10-04T06:33:54.222Z,6.78
2022-10-04T06:36:37.047Z,6.83
2022-10-04T06:39:24.388Z,6.87
2022-10-04T06:42:13.989Z,6.98
2022-10-04T06:45:07.720Z,7.04
2022-10-04T06:48:03.164Z,7.15
2022-10-04T06:50:35.275Z,7.26
2022-10-04T06:53:20.512Z,7.38
2022-10-04T06:56:07.007Z,7.51
2022-10-04T06:58:53.192Z,7.62
2022-10-04T07:01:33.168Z,7.78
2022-10-04T07:04:25.688Z,7.99
2022-10-04T07:07:29.528Z,8.18
2022-10-04T07:10:03.137Z,8.31
2022-10-04T07:12:33.264Z,8.44
2022-10-04T07:15:04.996Z,8.53
2022-10-04T07:17:39.225Z,8.59
2022-10-04T07:20:13.852Z,8.66
2022-10-04T07:22:49.258Z,8.79
2022-10-04T07:25:30.468Z,8.89
2022-10-04T07:28:27.794Z,9.02
2022-10-04T07:30:58.655Z,9.15
2022-10-04T07:33:28.982Z,9.24
2022-10-04T07:36:21.950Z,9.36
2022-10-04T07:39:01.749Z,9.47
2022-10-04T07:41:46.779Z,9.58
2022-10-04T07:44:17.253Z,9.70
2022-10-04T07:46:50.866Z,9.71
2022-10-04T07:49:20.196Z,9.82
2022-10-04T07:52:18.369Z,9.84
2022-10-04T07:54:50.917Z,9.99
2022-10-04T07:57:28.186Z,9.86
2022-10-04T08:00:17.624Z,10.11
2022-10-04T08:02:58.426Z,10.14
2022-10-04T08:05:36.284Z,10.19
2022-10-04T08:08:08.602Z,10.27
2022-10-04T08:11:01.146Z,10.36
2022-10-04T08:13:48.341Z,10.43
2022-10-04T08:16:35.640Z,10.47
2022-10-04T08:19:10.093Z,10.56
2022-10-04T08:22:05.398Z,10.58
2022-10-04T08:25:03.453Z,10.65
2022-10-04T08:28:27.467Z,10.70
2022-10-04T08:31:20.945Z,10.72
2022-10-04T08:34:01.191Z,10.75
2022-10-04T08:36:27.701Z,10.79
2022-10-04T08:38:58.618Z,10.83
2022-10-04T08:41:54.001Z,10.93
2022-10-04T08:44:47.894Z,11.01
2022-10-04T08:47:39.339Z,11.05
2022-10-04T08:50:24.354Z,11.04
2022-10-04T08:53:16.329Z,11.03
2022-10-04T08:56:17.509Z,11.01
2022-10-04T08:59:02.861Z,11.02
2022-10-04T09:01:44.637Z,11.05
2022-10-04T09:04:29.557Z,11.08
2022-10-04T09:07:01.460Z,11.17
2022-10-04T09:09:49.157Z,11.32
2022-10-04T09:12:47.083Z,11.42
2022-10-04T09:15:26.077Z,11.51
2022-10-04T09:17:55.552Z,11.59
2022-10-04T09:20:38.763Z,11.67
2022-10-04T09:23:18.264Z,11.81
2022-10-04T09:25:44.597Z,12.07
2022-10-04T09:28:17.061Z,12.25
2022-10-04T09:31:22.597Z,12.40
2022-10-04T09:34:23.277Z,12.49
2022-10-04T09:37:06.322Z,12.63
2022-10-04T09:39:52.647Z,12.84
2022-10-04T09:42:38.051Z,13.05
2022-10-04T09:45:27.418Z,13.05
2022-10-04T09:48:22.316Z,13.01
2022-10-04T09:51:13.102Z,12.93
2022-10-04T09:53:57.662Z,13.01
2022-10-04T09:56:28.860Z,13.25
2022-10-04T09:59:14.602Z,13.44
2022-10-04T10:02:03.518Z,13.59
2022-10-04T10:04:35.701Z,13.68
2022-10-04T10:07:18.715Z,13.82
2022-10-04T10:10:21.146Z,14.06
2022-10-04T10:13:12.155Z,14.23
2022-10-04T10:16:06.278Z,14.39
2022-10-04T10:18:59.201Z,14.40
2022-10-04T10:21:44.129Z,14.60
2022-10-04T10:24:34.237Z,14.88
2022-10-04T10:27:30.003Z,15.01
2022-10-04T10:30:21.201Z,15.07
2022-10-04T10:32:56.558Z,15.07
2022-10-04T10:35:42.746Z,15.06
2022-10-04T10:38:31.168Z,15.11
2022-10-04T10:41:32.187Z,15.12
2022-10-04T10:44:09.513Z,15.15
2022-10-04T10:47:01.223Z,15.17
2022-10-04T10:49:36.716Z,15.34
2022-10-04T10:52:40.327Z,15.53
2022-10-04T10:55:49.087Z,15.68
2022-10-04T10:58:44.534Z,15.81
2022-10-04T11:01:35.844Z,16.01
2022-10-04T11:04:31.403Z,16.19
2022-10-04T11:07:03.749Z,16.39
2022-10-04T11:09:46.150Z,16.62
2022-10-04T11:12:25.287Z,16.88
2022-10-04T11:15:15.092Z,17.03
2022-10-04T11:18:13.070Z,17.20
2022-10-04T11:21:17.353Z,17.37
2022-10-04T11:24:31.372Z,17.51
2022-10-04T11:26:57.702Z,17.63
2022-10-04T11:29:48.750Z,17.74
2022-10-04T11:32:47.383Z,17.87
2022-10-04T11:35:55.392Z,18.04
2022-10-04T11:38:48.352Z,18.22
2022-10-04T11:41:29.726Z,18.14
2022-10-04T11:43:56.132Z,18.08
2022-10-04T11:46:39.159Z,18.08
2022-10-04T11:49:36.542Z,18.12
2022-10-04T11:52:40.574Z,18.32
2022-10-04T11:55:32.110Z,18.59
2022-10-04T11:58:24.512Z,18.76
2022-10-04T12:01:30.620Z,18.81
2022-10-04T12:04:21.432Z,18.84
2022-10-04T12:07:26.452Z,19.00
2022-10-04T12:10:11.206Z,19.13
2022-10-04T12:12:52.815Z,19.24
2022-10-04T12:15:49.329Z,19.29
2022-10-04T12:18:15.708Z,19.46
2022-10-04T12:20:54.024Z,19.57
2022-10-04T12:23:42.514Z,19.67
2022-10-04T12:26:32.771Z,19.51
2022-10-04T12:29:30.241Z,19.42
2022-10-04T12:31:56.635Z,19.28
2022-10-04T12:34:36.293Z,19.14
2022-10-04T12:37:25.811Z,19.09
2022-10-04T12:40:12.515Z,19.00
2022-10-04T12:42:47.808Z,19.06
2022-10-04T12:45:43.100Z,19.36
2022-10-04T12:48:24.560Z,19.50
2022-10-04T12:51:05.203Z,19.40
2022-10-04T12:54:09.836Z,19.16
2022-10-04T12:56:46.177Z,18.95
2022-10-04T13:00:07.142Z,18.72
2022-10-04T13:02:51.794Z,18.56
2022-10-04T13:05:36.324Z,18.52
2022-10-04T13:08:17.110Z,18.78
2022-10-04T13:10:53.122Z,19.00
2022-10-04T13:13:38.150Z,19.13
2022-10-04T13:19:22.355Z,19.49
2022-10-04T13:22:09.925Z,19.49
2022-10-04T13:24:58.141Z,19.50
2022-10-04T13:27:57.063Z,19.49
2022-10-04T13:30:32.574Z,19.71
2022-10-04T13:33:23.687Z,19.79
2022-10-04T13:35:59.227Z,19.86
2022-10-04T13:39:07.441Z,19.90
2022-10-04T13:42:11.462Z,20.08
2022-10-04T13:45:03.270Z,20.46
2022-10-04T13:48:14.370Z,20.58
2022-10-04T13:51:00.631Z,20.54
2022-10-04T13:54:10.608Z,20.56
2022-10-04T13:56:55.599Z,20.65
2022-10-04T13:59:35.279Z,20.77
2022-10-04T14:02:41.793Z,21.09
2022-10-04T14:05:33.095Z,21.43
2022-10-04T14:08:21.432Z,21.55
2022-10-04T14:11:21.298Z,21.68
2022-10-04T14:14:23.884Z,21.78
2022-10-04T14:17:06.110Z,21.82
2022-10-04T14:19:44.340Z,21.94
2022-10-04T14:22:38.199Z,22.10
2022-10-04T14:25:44.012Z,22.12
2022-10-04T14:28:39.680Z,22.09
2022-10-04T14:31:46.495Z,21.99
2022-10-04T14:34:43.402Z,22.05
2022-10-04T14:37:28.554Z,22.15
2022-10-04T14:40:14.651Z,22.29
2022-10-04T14:42:40.958Z,22.42
2022-10-04T14:45:19.881Z,22.47
2022-10-04T14:51:16.254Z,23.01
2022-10-04T14:54:04.505Z,23.11
2022-10-04T14:56:51.023Z,23.38
2022-10-04T14:59:50.473Z,23.92
2022-10-04T15:02:25.162Z,24.74
2022-10-04T15:04:54.338Z,25.76
2022-10-04T15:07:30.001Z,27.47
2022-10-04T15:10:14.602Z,30.46
2022-10-04T15:13:18.575Z,33.08
2022-10-04T15:16:00.480Z,34.77
2022-10-04T15:18:44.111Z,36.72
2022-10-04T15:21:47.918Z,37.64
2022-10-04T15:24:17.413Z,38.29
2022-10-04T15:27:04.927Z,38.97
2022-10-04T15:29:57.992Z,38.99
2022-10-04T15:32:37.383Z,39.44
2022-10-04T15:35:28.650Z,39.76
2022-10-04T15:38:23.021Z,40.34
2022-10-04T15:41:06.414Z,40.35
2022-10-04T15:43:43.822Z,40.70
2022-10-04T15:46:45.538Z,40.60
2022-10-04T15:49:52.639Z,40.61
2022-10-04T15:52:44.091Z,40.48
2022-10-04T15:55:48.109Z,40.18
2022-10-04T15:58:39.665Z,39.65
2022-10-04T16:01:13.070Z,39.14
2022-10-04T16:03:53.139Z,38.51
2022-10-04T16:06:20.737Z,37.95
2022-10-04T16:09:03.881Z,37.30
2022-10-04T16:11:38.431Z,36.25
2022-10-04T16:14:21.705Z,34.52
2022-10-04T16:17:02.031Z,32.15
2022-10-04T16:19:43.370Z,30.21
2022-10-04T16:22:18.618Z,28.75
2022-10-04T16:25:17.037Z,27.77
2022-10-04T16:27:58.648Z,26.98
2022-10-04T16:30:39.976Z,26.66
2022-10-04T16:33:23.197Z,26.70
2022-10-04T16:36:16.481Z,26.48
2022-10-04T16:39:16.198Z,24.94
2022-10-04T16:41:52.853Z,23.15
2022-10-04T16:44:38.230Z,21.88
2022-10-04T16:47:26.790Z,20.67
2022-10-04T16:49:57.091Z,19.77
2022-10-04T16:52:32.060Z,18.94
2022-10-04T16:55:09.966Z,18.31
2022-10-04T16:57:37.409Z,17.72
2022-10-04T17:00:31.758Z,17.21
2022-10-04T17:03:32.765Z,16.75
2022-10-04T17:06:13.095Z,16.33
2022-10-04T17:09:05.562Z,16.03
2022-10-04T17:11:43.072Z,15.75
2022-10-04T17:14:32.482Z,15.52
2022-10-04T17:17:15.775Z,15.31
2022-10-04T17:20:12.375Z,15.12
2022-10-04T17:22:47.551Z,14.95
2022-10-04T17:25:44.242Z,14.80
2022-10-04T17:28:32.758Z,14.65
2022-10-04T17:31:14.878Z,14.46
2022-10-04T17:33:51.410Z,14.31
2022-10-04T17:36:33.479Z,14.17
2022-10-04T17:39:19.698Z,14.13
2022-10-04T17:42:06.400Z,14.09
2022-10-04T17:45:11.668Z,14.03
2022-10-04T17:48:07.062Z,13.98
2022-10-04T17:51:07.424Z,13.91
2022-10-04T17:53:58.743Z,13.84
2022-10-04T17:56:36.094Z,13.75
2022-10-04T17:59:12.020Z,13.67
2022-10-04T18:01:46.720Z,13.59
2022-10-04T18:04:23.601Z,13.54
2022-10-04T18:07:13.137Z,13.54
2022-10-04T18:09:39.671Z,13.49
2022-10-04T18:12:29.012Z,13.46
2022-10-04T18:15:18.184Z,13.42
2022-10-04T18:17:48.759Z,13.37
2022-10-04T18:20:30.749Z,13.35
2022-10-04T18:23:17.928Z,13.30
2022-10-04T18:25:45.394Z,13.24
2022-10-04T18:28:14.965Z,13.15
2022-10-04T18:30:53.846Z,13.20
2022-10-04T18:33:29.111Z,13.14
2022-10-04T18:36:27.266Z,13.13
2022-10-04T18:39:11.554Z,13.08
2022-10-04T18:41:54.101Z,13.06
2022-10-04T18:44:23.693Z,13.06
2022-10-04T18:47:13.037Z,13.08
2022-10-04T18:49:49.330Z,13.09
2022-10-04T18:52:34.843Z,13.10
2022-10-04T18:55:10.363Z,13.12
2022-10-04T18:58:05.848Z,13.09
2022-10-04T19:00:59.647Z,13.08
2022-10-04T19:03:53.061Z,13.05
2022-10-04T19:06:26.349Z,13.03
2022-10-04T19:09:26.676Z,12.96
2022-10-04T19:11:57.707Z,12.91
2022-10-04T19:14:56.258Z,12.85
2022-10-04T19:17:35.708Z,12.77
2022-10-04T19:20:23.147Z,12.76
2022-10-04T19:23:21.094Z,12.74
2022-10-04T19:26:17.720Z,12.70
2022-10-04T19:28:39.579Z,12.68
2022-10-04T19:31:55.762Z,12.66
2022-10-04T19:34:47.417Z,12.62
2022-10-04T19:37:30.333Z,12.58
2022-10-04T19:40:04.239Z,12.50
2022-10-04T19:42:59.221Z,12.47
2022-10-04T19:45:44.348Z,12.40
2022-10-04T19:48:24.006Z,12.36
2022-10-04T19:51:00.250Z,12.33
2022-10-04T19:53:36.964Z,12.30
2022-10-04T19:56:16.362Z,12.30
2022-10-04T19:58:47.538Z,12.29
2022-10-04T20:01:15.906Z,12.27
2022-10-04T20:03:42.982Z,12.27
2022-10-04T20:06:10.689Z,12.25
2022-10-04T20:09:02.562Z,12.29
2022-10-04T20:11:41.967Z,12.28
2022-10-04T20:14:17.370Z,12.26
2022-10-04T20:16:47.379Z,12.26
2022-10-04T20:19:19.854Z,12.24
2022-10-04T20:21:46.551Z,12.19
2022-10-04T20:24:35.659Z,12.19
2022-10-04T20:27:21.757Z,12.16
2022-10-04T20:29:55.967Z,12.16
2022-10-04T20:32:34.470Z,12.14
2022-10-04T20:35:02.422Z,12.03
2022-10-04T20:37:43.875Z,12.07
2022-10-04T20:40:30.408Z,12.03
2022-10-04T20:43:15.050Z,11.98
2022-10-04T20:45:49.890Z,11.95
2022-10-04T20:48:24.573Z,11.94
2022-10-04T20:50:52.200Z,11.93
2022-10-04T20:53:24.329Z,11.93
2022-10-04T20:56:01.926Z,11.90
2022-10-04T20:58:32.900Z,11.79
2022-10-04T21:01:10.869Z,11.67
2022-10-04T21:03:37.343Z,11.51
2022-10-04T21:06:05.386Z,11.44
2022-10-04T21:08:32.781Z,11.37
2022-10-04T21:11:43.254Z,11.30
2022-10-04T21:14:22.801Z,11.20
2022-10-04T21:16:51.629Z,11.15
2022-10-04T21:19:33.764Z,11.12
2022-10-04T21:22:02.992Z,11.08
2022-10-04T21:24:42.761Z,11.05
2022-10-04T21:27:12.215Z,11.01
2022-10-04T21:29:39.623Z,11.00
2022-10-04T21:32:06.604Z,11.01
2022-10-04T21:34:57.070Z,11.01
2022-10-04T21:37:20.042Z,11.00
2022-10-04T21:39:46.424Z,10.96
2022-10-04T21:42:12.791Z,10.96
2022-10-04T21:44:39.224Z,10.90
2022-10-04T21:47:05.852Z,10.89
2022-10-04T21:49:32.252Z,10.84
2022-10-04T21:51:58.605Z,10.80
2022-10-04T21:54:25.019Z,10.77
2022-10-04T21:56:51.393Z,10.74
2022-10-04T21:59:17.754Z,10.71
2022-10-04T22:01:44.146Z,10.72
2022-10-04T22:04:10.749Z,10.71
2022-10-04T22:06:37.210Z,10.69
2022-10-04T22:09:03.731Z,10.63
2022-10-04T22:11:30.239Z,10.52
2022-10-04T22:13:56.630Z,10.43
2022-10-04T22:16:23.199Z,10.43
2022-10-04T22:18:49.681Z,10.41
2022-10-04T22:21:16.241Z,10.37
2022-10-04T22:23:44.011Z,10.35
2022-10-04T22:26:12.873Z,10.31
2022-10-04T22:28:45.593Z,10.30
2022-10-04T22:31:17.988Z,10.31
2022-10-04T22:33:46.300Z,10.30
2022-10-04T22:36:23.689Z,10.21
2022-10-04T22:38:59.555Z,10.09
2022-10-04T22:41:34.835Z,10.05
2022-10-04T22:44:19.884Z,10.04
2022-10-04T22:46:51.436Z,10.04
2022-10-04T22:49:21.525Z,10.08
2022-10-04T22:51:50.358Z,10.11
2022-10-04T22:54:20.005Z,10.09
2022-10-04T22:56:47.277Z,10.13
2022-10-04T22:59:17.238Z,10.13
2022-10-04T23:01:43.768Z,10.16
2022-10-04T23:04:25.684Z,10.17
2022-10-04T23:06:53.269Z,10.17
2022-10-04T23:09:20.280Z,10.18
2022-10-04T23:11:46.696Z,10.13
2022-10-04T23:14:13.057Z,10.21
2022-10-04T23:16:39.441Z,10.22
2022-10-04T23:19:08.633Z,10.23
2022-10-04T23:21:38.146Z,10.26
2022-10-04T23:24:24.825Z,10.34
2022-10-04T23:26:58.580Z,10.40
2022-10-04T23:29:28.060Z,10.42
2022-10-04T23:31:55.955Z,10.42
2022-10-04T23:34:28.941Z,10.42
2022-10-04T23:36:56.536Z,10.42
2022-10-04T23:39:26.443Z,10.41
2022-10-04T23:41:55.200Z,10.43
2022-10-04T23:44:25.164Z,10.48
2022-10-04T23:46:52.245Z,10.51
2022-10-04T23:49:20.592Z,10.53
2022-10-04T23:51:47.992Z,10.54
2022-10-04T23:54:19.982Z,10.64
2022-10-04T23:56:47.115Z,10.65
2022-10-04T23:59:19.311Z,10.74
